Time;durP1;ratioP1;P1;durP2;ratioP2;P2;SDS_P1;SDS_P2;PMS_P1;PMS_P2;Temp;Humidity;BMP_temperature;BMP_pressure;BME280_temperature;BME280_humidity;BME280_pressure;Samples;Min_cycle;Max_cycle;Signal;HPM_P1;HPM_P2
2024/02/19 00:01:01;;;;;;;;;;;8.40;99.90;;;;;;5029947;28;19936;-53
2024/02/19 00:03:27;;;;;;;;;;;8.40;99.90;;;;;;5024469;28;19913;-56
2024/02/19 00:05:54;;;;;;;;;;;8.40;99.90;;;;;;5031902;28;19916;-55
2024/02/19 00:08:21;;;;;;;;;;;8.40;99.90;;;;;;5015922;28;20327;-56
2024/02/19 00:10:46;;;;;;;;;;;8.40;99.90;;;;;;5033373;28;19948;-59
2024/02/19 00:13:12;;;;;;;;;;;8.40;99.90;;;;;;5047948;28;19960;-56
2024/02/19 00:15:37;;;;;;;;;;;8.40;99.90;;;;;;5030164;28;20331;-55
2024/02/19 00:18:03;;;;;;;;;;;8.50;99.90;;;;;;5043323;28;19909;-54
2024/02/19 00:20:29;;;;;;;;;;;8.40;99.90;;;;;;5033503;28;19967;-55
2024/02/19 00:22:54;;;;;;;;;;;8.40;99.90;;;;;;5029184;28;19913;-55
2024/02/19 00:25:20;;;;;;;;;;;8.40;99.90;;;;;;5052029;28;20630;-57
2024/02/19 00:27:45;;;;;;;;;;;8.50;99.90;;;;;;5028526;28;19948;-54
2024/02/19 00:30:11;;;;;;;;;;;8.50;99.90;;;;;;5044912;28;19912;-56
2024/02/19 00:32:36;;;;;;;;;;;8.50;99.90;;;;;;5040963;28;20287;-56
2024/02/19 00:35:02;;;;;;;;;;;8.50;99.90;;;;;;5018578;28;19968;-55
2024/02/19 00:37:27;;;;;;;;;;;8.50;99.90;;;;;;5033419;28;19917;-55
2024/02/19 00:39:53;;;;;;;;;;;8.50;99.90;;;;;;5036583;28;19991;-56
2024/02/19 00:42:18;;;;;;;;;;;8.50;99.90;;;;;;5044308;28;20369;-54
2024/02/19 00:44:44;;;;;;;;;;;8.50;99.90;;;;;;5034167;28;20008;-54
2024/02/19 00:47:10;;;;;;;;;;;8.50;99.90;;;;;;5024182;28;19916;-56
2024/02/19 00:49:36;;;;;;;;;;;8.50;99.90;;;;;;5034004;28;19917;-53
2024/02/19 00:52:01;;;;;;;;;;;8.50;99.90;;;;;;5036154;28;19912;-55
2024/02/19 00:54:26;;;;;;;;;;;8.50;99.90;;;;;;5037411;28;20396;-57
2024/02/19 00:56:52;;;;;;;;;;;8.50;99.90;;;;;;5026427;28;19905;-55
2024/02/19 00:59:17;;;;;;;;;;;8.60;99.90;;;;;;5028027;28;20285;-58
2024/02/19 01:01:43;;;;;;;;;;;8.60;99.90;;;;;;5041566;28;19954;-56
2024/02/19 01:04:08;;;;;;;;;;;8.60;99.90;;;;;;5032332;28;19966;-56
2024/02/19 01:06:34;;;;;;;;;;;8.60;99.90;;;;;;5028377;28;19920;-52
2024/02/19 01:08:59;;;;;;;;;;;8.60;99.90;;;;;;5033628;28;19917;-56
2024/02/19 01:11:25;;;;;;;;;;;8.60;99.90;;;;;;5043130;28;19909;-53
2024/02/19 01:13:50;;;;;;;;;;;8.60;99.90;;;;;;5051009;28;20265;-56
2024/02/19 01:16:15;;;;;;;;;;;8.60;99.90;;;;;;5031165;28;19913;-56
2024/02/19 01:18:41;;;;;;;;;;;8.60;99.90;;;;;;5032044;28;19940;-53
2024/02/19 01:21:06;;;;;;;;;;;8.60;99.90;;;;;;5031068;28;19936;-53
2024/02/19 01:23:32;;;;;;;;;;;8.60;99.90;;;;;;5051004;28;19987;-55
2024/02/19 01:25:57;;;;;;;;;;;8.60;99.90;;;;;;5032999;28;20293;-55
2024/02/19 01:28:23;;;;;;;;;;;8.60;99.90;;;;;;5018751;28;19927;-55
2024/02/19 01:30:49;;;;;;;;;;;8.60;99.90;;;;;;5050743;28;19909;-55
2024/02/19 01:33:15;;;;;;;;;;;8.60;99.90;;;;;;5026753;28;19920;-56
2024/02/19 01:35:41;;;;;;;;;;;8.60;99.90;;;;;;5027372;28;20000;-54
2024/02/19 01:38:07;;;;;;;;;;;8.60;99.90;;;;;;5010433;28;20308;-55
2024/02/19 01:40:33;;;;;;;;;;;8.60;99.90;;;;;;5021908;28;19909;-56
2024/02/19 01:43:00;;;;;;;;;;;8.50;99.90;;;;;;5033246;28;19962;-53
2024/02/19 01:45:26;;;;;;;;;;;8.50;99.90;;;;;;5043205;28;19920;-57
2024/02/19 01:47:55;;;;;;;;;;;8.50;99.90;;;;;;5033416;28;19913;-55
2024/02/19 01:50:21;;;;;;;;;;;8.50;99.90;;;;;;5026210;28;20376;-53
2024/02/19 01:52:48;;;;;;;;;;;8.40;99.90;;;;;;5041705;28;19939;-56
2024/02/19 01:55:15;;;;;;;;;;;8.50;99.90;;;;;;5050156;28;19943;-54
2024/02/19 01:57:42;;;;;;;;;;;8.50;99.90;;;;;;5036873;28;19914;-55
2024/02/19 02:00:08;;;;;;;;;;;8.40;99.90;;;;;;5022573;28;19910;-57
2024/02/19 02:02:34;;;;;;;;;;;8.50;99.90;;;;;;5022690;28;20377;-56
2024/02/19 02:05:00;;;;;;;;;;;8.40;99.90;;;;;;5028352;28;19965;-56
2024/02/19 02:07:26;;;;;;;;;;;8.40;99.90;;;;;;5028667;28;20167;-55
2024/02/19 02:09:52;;;;;;;;;;;8.40;99.90;;;;;;5014163;28;19921;-57
2024/02/19 02:12:17;;;;;;;;;;;8.30;99.90;;;;;;5034746;28;19913;-53
2024/02/19 02:14:43;;;;;;;;;;;8.30;99.90;;;;;;5040208;28;19916;-53
2024/02/19 02:17:08;;;;;;;;;;;8.30;99.90;;;;;;5032840;28;19916;-56
2024/02/19 02:19:34;;;;;;;;;;;8.30;99.90;;;;;;5049862;28;19912;-52
2024/02/19 02:21:59;;;;;;;;;;;8.30;99.90;;;;;;5025086;28;19913;-57
2024/02/19 02:24:25;;;;;;;;;;;8.30;99.90;;;;;;5045654;28;19913;-57
2024/02/19 02:26:50;;;;;;;;;;;8.30;99.90;;;;;;5037603;28;20328;-56
2024/02/19 02:29:16;;;;;;;;;;;8.30;99.90;;;;;;5026859;28;19918;-53
2024/02/19 02:31:41;;;;;;;;;;;8.20;99.90;;;;;;5018347;28;19920;-56
2024/02/19 02:34:07;;;;;;;;;;;8.20;99.90;;;;;;5009989;28;20487;-55
2024/02/19 02:36:33;;;;;;;;;;;8.20;99.90;;;;;;5025952;28;19940;-53
2024/02/19 02:38:59;;;;;;;;;;;8.20;99.90;;;;;;5027610;28;19909;-54
2024/02/19 02:41:24;;;;;;;;;;;8.20;99.90;;;;;;5041263;28;20427;-55
2024/02/19 02:43:50;;;;;;;;;;;8.20;99.90;;;;;;5025712;28;19921;-53
2024/02/19 02:46:15;;;;;;;;;;;8.20;99.90;;;;;;5043447;28;19964;-55
2024/02/19 02:48:41;;;;;;;;;;;8.20;99.90;;;;;;5038661;28;19916;-58
2024/02/19 02:51:06;;;;;;;;;;;8.10;99.90;;;;;;5021626;28;19948;-54
2024/02/19 02:53:32;;;;;;;;;;;8.10;99.90;;;;;;5013650;28;20022;-56
2024/02/19 02:55:57;;;;;;;;;;;8.10;99.90;;;;;;5037271;28;19909;-54
2024/02/19 02:58:23;;;;;;;;;;;8.10;99.90;;;;;;5029796;28;19909;-54
2024/02/19 03:00:48;;;;;;;;;;;8.10;99.90;;;;;;5037786;28;19909;-56
2024/02/19 03:03:14;;;;;;;;;;;7.90;99.90;;;;;;5035003;28;19968;-56
2024/02/19 03:05:39;;;;;;;;;;;7.90;99.90;;;;;;5030281;28;19966;-57
2024/02/19 03:08:05;;;;;;;;;;;7.90;99.90;;;;;;5015998;28;19918;-58
2024/02/19 03:10:30;;;;;;;;;;;7.90;99.90;;;;;;5023232;28;19999;-53
2024/02/19 03:12:56;;;;;;;;;;;7.90;99.90;;;;;;5018310;28;19916;-55
2024/02/19 03:15:21;;;;;;;;;;;8.00;99.90;;;;;;5045407;28;19921;-56
2024/02/19 03:17:47;;;;;;;;;;;7.90;99.90;;;;;;5020965;28;19913;-57
2024/02/19 03:20:13;;;;;;;;;;;7.90;99.90;;;;;;5048339;28;20412;-54
2024/02/19 03:22:40;;;;;;;;;;;7.90;99.90;;;;;;5032782;28;20376;-57
2024/02/19 03:25:06;;;;;;;;;;;7.80;99.90;;;;;;5037814;28;19967;-57
2024/02/19 03:27:32;;;;;;;;;;;7.80;99.90;;;;;;5035668;28;19917;-57
2024/02/19 03:29:57;;;;;;;;;;;7.80;99.90;;;;;;5023717;28;19917;-57
2024/02/19 03:32:23;;;;;;;;;;;7.70;99.90;;;;;;5017277;28;20030;-53
2024/02/19 03:34:48;;;;;;;;;;;7.60;99.90;;;;;;5019526;28;19916;-53
2024/02/19 03:37:15;;;;;;;;;;;7.50;99.90;;;;;;5039753;28;20273;-55
2024/02/19 03:39:41;;;;;;;;;;;7.50;99.90;;;;;;5033029;28;20016;-56
2024/02/19 03:42:06;;;;;;;;;;;7.40;99.90;;;;;;5039247;28;19917;-55
2024/02/19 03:44:32;;;;;;;;;;;7.40;99.90;;;;;;5039464;28;19944;-58
2024/02/19 03:46:58;;;;;;;;;;;7.40;99.90;;;;;;5051989;28;19986;-55
2024/02/19 03:49:25;;;;;;;;;;;7.30;99.90;;;;;;5044400;28;19941;-54
2024/02/19 03:51:50;;;;;;;;;;;7.40;99.90;;;;;;5029380;28;19987;-58
2024/02/19 03:54:16;;;;;;;;;;;7.30;99.90;;;;;;5045736;28;19983;-55
2024/02/19 03:56:41;;;;;;;;;;;7.30;99.90;;;;;;5041309;28;19919;-55
2024/02/19 03:59:07;;;;;;;;;;;7.30;99.90;;;;;;5032836;28;20402;-56
2024/02/19 04:01:32;;;;;;;;;;;7.20;99.90;;;;;;5034117;28;20455;-52
2024/02/19 04:03:57;;;;;;;;;;;7.30;99.90;;;;;;5048801;28;20441;-54
2024/02/19 04:06:23;;;;;;;;;;;7.20;99.90;;;;;;5040509;28;19926;-54
2024/02/19 04:08:48;;;;;;;;;;;7.20;99.90;;;;;;5024533;28;20030;-58
2024/02/19 04:11:15;;;;;;;;;;;7.20;99.90;;;;;;5042434;28;19946;-57
2024/02/19 04:13:40;;;;;;;;;;;7.20;99.90;;;;;;5029500;28;19917;-55
2024/02/19 04:16:09;;;;;;;;;;;7.10;99.90;;;;;;5050009;28;19933;-53
2024/02/19 04:18:35;;;;;;;;;;;7.10;99.90;;;;;;5029947;28;19932;-53
2024/02/19 04:21:00;;;;;;;;;;;7.10;99.90;;;;;;5048629;28;19988;-57
2024/02/19 04:23:26;;;;;;;;;;;7.10;99.90;;;;;;5036171;28;19926;-56
2024/02/19 04:25:51;;;;;;;;;;;7.10;99.90;;;;;;5012121;28;19931;-58
2024/02/19 04:28:17;;;;;;;;;;;7.10;99.90;;;;;;5050278;28;20032;-58
2024/02/19 04:30:42;;;;;;;;;;;7.00;99.90;;;;;;5037385;28;19939;-54
2024/02/19 04:33:08;;;;;;;;;;;7.10;99.90;;;;;;5033629;28;20417;-55
2024/02/19 04:35:33;;;;;;;;;;;7.10;99.90;;;;;;5051613;28;19935;-54
2024/02/19 04:37:59;;;;;;;;;;;7.10;99.90;;;;;;5025770;28;19923;-57
2024/02/19 04:40:24;;;;;;;;;;;7.10;99.90;;;;;;5027796;28;19978;-55
2024/02/19 04:42:50;;;;;;;;;;;7.10;99.90;;;;;;5051697;28;20145;-56
2024/02/19 04:45:15;;;;;;;;;;;7.00;99.90;;;;;;5037504;28;19949;-54
2024/02/19 04:47:41;;;;;;;;;;;7.10;99.90;;;;;;5016871;28;19929;-56
2024/02/19 04:50:06;;;;;;;;;;;7.10;99.90;;;;;;5041443;28;19981;-53
2024/02/19 04:52:32;;;;;;;;;;;7.00;99.90;;;;;;5030236;28;20277;-52
2024/02/19 04:54:57;;;;;;;;;;;7.00;99.90;;;;;;5048049;28;20458;-57
2024/02/19 04:57:22;;;;;;;;;;;7.00;99.90;;;;;;5043538;28;20061;-57
2024/02/19 04:59:48;;;;;;;;;;;7.00;99.90;;;;;;5034062;28;19921;-54
2024/02/19 05:02:13;;;;;;;;;;;7.00;99.90;;;;;;5042947;28;20506;-55
2024/02/19 05:04:39;;;;;;;;;;;7.00;99.90;;;;;;5045311;28;19925;-54
2024/02/19 05:07:05;;;;;;;;;;;7.00;99.90;;;;;;5022606;28;19929;-53
2024/02/19 05:09:30;;;;;;;;;;;7.10;99.90;;;;;;5046735;28;20307;-56
2024/02/19 05:11:56;;;;;;;;;;;7.00;99.90;;;;;;5039773;28;19943;-58
2024/02/19 05:14:22;;;;;;;;;;;7.00;99.90;;;;;;5034478;28;20004;-54
2024/02/19 05:16:47;;;;;;;;;;;7.00;99.90;;;;;;5043680;28;19926;-56
2024/02/19 05:19:13;;;;;;;;;;;7.00;99.90;;;;;;5033233;28;19939;-54
2024/02/19 05:21:41;;;;;;;;;;;7.00;99.90;;;;;;5042575;28;20404;-52
2024/02/19 05:24:08;;;;;;;;;;;7.00;99.90;;;;;;5031545;28;19925;-54
2024/02/19 05:26:34;;;;;;;;;;;7.00;99.90;;;;;;5010982;28;19967;-54
2024/02/19 05:28:59;;;;;;;;;;;7.00;99.90;;;;;;5044159;28;19947;-54
2024/02/19 05:31:35;;;;;;;;;;;7.00;99.90;;;;;;5026791;28;20393;-57
2024/02/19 05:34:02;;;;;;;;;;;7.00;99.90;;;;;;5017982;28;19931;-53
2024/02/19 05:36:27;;;;;;;;;;;7.10;99.90;;;;;;5041601;28;19923;-54
2024/02/19 05:38:53;;;;;;;;;;;7.00;99.90;;;;;;5011048;28;19980;-57
2024/02/19 05:41:18;;;;;;;;;;;7.00;99.90;;;;;;5029913;28;19944;-53
2024/02/19 05:43:46;;;;;;;;;;;7.00;99.90;;;;;;5036865;28;19934;-56
2024/02/19 05:46:13;;;;;;;;;;;7.00;99.90;;;;;;5045982;28;19967;-54
2024/02/19 05:48:38;;;;;;;;;;;7.00;99.90;;;;;;5015961;28;20401;-53
2024/02/19 05:51:04;;;;;;;;;;;7.00;99.90;;;;;;5030164;28;19969;-55
2024/02/19 05:53:30;;;;;;;;;;;7.00;99.90;;;;;;5009127;28;20574;-57
2024/02/19 05:55:55;;;;;;;;;;;7.00;99.90;;;;;;5050056;28;19960;-56
2024/02/19 05:58:21;;;;;;;;;;;7.00;99.90;;;;;;5042925;28;19929;-53
2024/02/19 06:00:46;;;;;;;;;;;7.00;99.90;;;;;;5040424;28;20317;-54
2024/02/19 06:03:12;;;;;;;;;;;7.00;99.90;;;;;;5025496;28;19930;-55
2024/02/19 06:05:38;;;;;;;;;;;7.00;99.90;;;;;;5041725;28;20036;-56
2024/02/19 06:08:04;;;;;;;;;;;7.00;99.90;;;;;;5028563;28;20025;-55
2024/02/19 06:10:29;;;;;;;;;;;6.90;99.90;;;;;;5031157;28;20393;-54
2024/02/19 06:12:54;;;;;;;;;;;7.00;99.90;;;;;;5014111;28;19994;-57
2024/02/19 06:15:20;;;;;;;;;;;7.00;99.90;;;;;;5046346;28;19925;-54
2024/02/19 06:17:46;;;;;;;;;;;7.00;99.90;;;;;;5036486;28;19921;-52
2024/02/19 06:20:12;;;;;;;;;;;7.00;99.90;;;;;;5049834;28;19929;-56
2024/02/19 06:22:37;;;;;;;;;;;7.00;99.90;;;;;;5036114;28;19946;-55
2024/02/19 06:25:03;;;;;;;;;;;7.00;99.90;;;;;;5045664;28;19930;-56
2024/02/19 06:27:28;;;;;;;;;;;7.00;99.90;;;;;;5026379;28;19926;-53
2024/02/19 06:29:54;;;;;;;;;;;7.00;99.90;;;;;;5018022;28;19918;-54
2024/02/19 06:32:19;;;;;;;;;;;7.00;99.90;;;;;;5040793;28;19946;-55
2024/02/19 06:34:45;;;;;;;;;;;6.90;99.90;;;;;;5041459;28;19928;-57
2024/02/19 06:37:10;;;;;;;;;;;7.00;99.90;;;;;;5032444;28;19926;-57
2024/02/19 06:39:39;;;;;;;;;;;7.00;99.90;;;;;;5041819;28;19926;-56
2024/02/19 06:42:05;;;;;;;;;;;6.90;99.90;;;;;;5022961;28;19940;-53
2024/02/19 06:44:30;;;;;;;;;;;6.90;99.90;;;;;;5014450;28;20489;-54
2024/02/19 06:46:56;;;;;;;;;;;6.90;99.90;;;;;;5029449;28;19925;-56
2024/02/19 06:49:22;;;;;;;;;;;6.90;99.90;;;;;;5029339;28;19955;-55
2024/02/19 06:51:47;;;;;;;;;;;7.00;99.90;;;;;;5014630;28;19921;-54
2024/02/19 06:54:13;;;;;;;;;;;6.90;99.90;;;;;;5044766;28;19926;-55
2024/02/19 06:56:38;;;;;;;;;;;6.90;99.90;;;;;;5026451;28;19939;-55
2024/02/19 06:59:04;;;;;;;;;;;6.90;99.90;;;;;;5048915;28;19923;-53
2024/02/19 07:01:29;;;;;;;;;;;7.00;99.90;;;;;;5032602;28;19949;-54
2024/02/19 07:03:55;;;;;;;;;;;7.00;99.90;;;;;;5029335;28;20018;-56
2024/02/19 07:06:20;;;;;;;;;;;7.00;99.90;;;;;;5017706;28;19917;-53
2024/02/19 07:08:47;;;;;;;;;;;7.00;99.90;;;;;;5023440;28;19952;-58
2024/02/19 07:11:12;;;;;;;;;;;7.10;99.90;;;;;;5034523;28;19939;-56
2024/02/19 07:13:38;;;;;;;;;;;7.10;99.90;;;;;;5052829;28;19946;-55
2024/02/19 07:16:03;;;;;;;;;;;7.10;99.90;;;;;;5051009;28;19919;-56
2024/02/19 07:18:29;;;;;;;;;;;7.10;99.90;;;;;;5012538;28;19924;-54
2024/02/19 07:20:54;;;;;;;;;;;7.20;99.90;;;;;;5036532;28;19951;-52
2024/02/19 07:23:20;;;;;;;;;;;7.20;99.90;;;;;;5024758;28;20344;-54
2024/02/19 07:25:46;;;;;;;;;;;7.20;99.90;;;;;;5034199;28;19912;-54
2024/02/19 07:28:11;;;;;;;;;;;7.30;99.90;;;;;;5020517;28;20437;-54
2024/02/19 07:30:38;;;;;;;;;;;7.30;99.90;;;;;;5039928;28;19923;-53
2024/02/19 07:33:06;;;;;;;;;;;7.40;99.90;;;;;;5043353;28;19935;-54
2024/02/19 07:35:31;;;;;;;;;;;7.30;99.90;;;;;;5028846;28;19927;-59
2024/02/19 07:37:57;;;;;;;;;;;7.30;99.90;;;;;;5043450;28;20387;-58
2024/02/19 07:40:22;;;;;;;;;;;7.40;99.90;;;;;;5017686;28;19915;-59
2024/02/19 07:42:48;;;;;;;;;;;7.40;99.90;;;;;;5022125;28;20361;-57
2024/02/19 07:45:14;;;;;;;;;;;7.50;99.90;;;;;;5033463;28;19912;-57
2024/02/19 07:47:39;;;;;;;;;;;7.50;99.90;;;;;;5052103;28;20345;-58
2024/02/19 07:50:05;;;;;;;;;;;7.60;99.90;;;;;;5050901;28;19999;-59
2024/02/19 07:52:31;;;;;;;;;;;7.60;99.90;;;;;;5044719;28;20315;-59
2024/02/19 07:54:56;;;;;;;;;;;7.60;99.90;;;;;;5044378;28;20034;-59
2024/02/19 07:57:22;;;;;;;;;;;7.60;99.90;;;;;;5051264;28;20300;-53
2024/02/19 07:59:47;;;;;;;;;;;7.60;99.90;;;;;;5045240;28;19909;-53
2024/02/19 08:02:12;;;;;;;;;;;7.60;99.90;;;;;;5013376;28;20430;-54
2024/02/19 08:04:38;;;;;;;;;;;7.70;99.90;;;;;;5039341;28;19908;-55
2024/02/19 08:07:04;;;;;;;;;;;7.80;99.90;;;;;;5016804;28;19913;-56
2024/02/19 08:09:29;;;;;;;;;;;7.80;99.90;;;;;;5031057;28;20376;-54
2024/02/19 08:11:57;;;;;;;;;;;7.80;99.90;;;;;;5047786;28;19913;-55
2024/02/19 08:14:24;;;;;;;;;;;7.80;99.90;;;;;;5028464;28;19909;-57
2024/02/19 08:16:50;;;;;;;;;;;7.80;99.90;;;;;;5034936;28;19913;-55
2024/02/19 08:19:16;;;;;;;;;;;7.80;99.90;;;;;;5037770;28;20004;-55
2024/02/19 08:21:42;;;;;;;;;;;7.90;99.90;;;;;;5031250;28;20358;-55
2024/02/19 08:24:08;;;;;;;;;;;7.90;99.90;;;;;;5034232;28;19970;-52
2024/02/19 08:26:33;;;;;;;;;;;8.00;99.90;;;;;;5039541;28;19921;-54
2024/02/19 08:28:59;;;;;;;;;;;8.00;99.90;;;;;;5031512;28;20434;-58
2024/02/19 08:31:27;;;;;;;;;;;7.90;99.90;;;;;;5036019;28;19913;-55
2024/02/19 08:33:56;;;;;;;;;;;7.90;99.90;;;;;;5042991;28;19974;-53
2024/02/19 08:36:21;;;;;;;;;;;7.90;99.90;;;;;;5028469;28;19960;-59
2024/02/19 08:38:52;;;;;;;;;;;7.90;99.90;;;;;;5027822;28;19917;-55
2024/02/19 08:41:18;;;;;;;;;;;7.90;99.90;;;;;;5024953;28;20303;-57
2024/02/19 08:43:43;;;;;;;;;;;7.90;99.90;;;;;;5044882;28;19920;-57
2024/02/19 08:46:09;;;;;;;;;;;8.00;99.90;;;;;;5005074;28;20282;-58
2024/02/19 08:48:35;;;;;;;;;;;8.10;99.90;;;;;;5025700;28;19917;-56
2024/02/19 08:51:01;;;;;;;;;;;8.30;99.90;;;;;;5027632;28;19935;-59
2024/02/19 08:53:27;;;;;;;;;;;8.30;99.90;;;;;;5035764;28;19948;-58
2024/02/19 08:55:53;;;;;;;;;;;8.40;99.90;;;;;;5042452;28;19930;-61
2024/02/19 08:58:19;;;;;;;;;;;8.50;99.90;;;;;;5026301;28;19921;-57
2024/02/19 09:00:44;;;;;;;;;;;8.60;99.90;;;;;;5029097;28;20000;-57
2024/02/19 09:03:10;;;;;;;;;;;8.60;99.90;;;;;;5026042;28;20267;-57
2024/02/19 09:05:36;;;;;;;;;;;8.60;99.90;;;;;;5025873;28;19975;-57
2024/02/19 09:08:03;;;;;;;;;;;8.70;99.90;;;;;;5023680;28;19917;-60
2024/02/19 09:10:28;;;;;;;;;;;8.80;99.90;;;;;;5025077;28;19927;-58
2024/02/19 09:12:54;;;;;;;;;;;8.80;99.90;;;;;;5025497;28;19913;-58
2024/02/19 09:15:19;;;;;;;;;;;8.70;99.90;;;;;;5024809;28;20278;-57
2024/02/19 09:17:45;;;;;;;;;;;8.80;99.90;;;;;;5025424;28;19931;-57
2024/02/19 09:20:11;;;;;;;;;;;8.80;99.90;;;;;;5049689;28;20581;-56
2024/02/19 09:22:37;;;;;;;;;;;8.80;99.90;;;;;;5037053;28;20277;-59
2024/02/19 09:25:03;;;;;;;;;;;8.90;99.90;;;;;;5026427;28;19939;-59
2024/02/19 09:27:29;;;;;;;;;;;9.00;99.90;;;;;;5036778;28;20360;-54
2024/02/19 09:29:56;;;;;;;;;;;9.00;99.90;;;;;;5038505;28;19923;-58
2024/02/19 09:32:22;;;;;;;;;;;9.00;99.90;;;;;;5034606;28;19917;-55
2024/02/19 09:34:47;;;;;;;;;;;9.00;99.90;;;;;;5033116;28;20430;-59
2024/02/19 09:37:13;;;;;;;;;;;9.20;99.90;;;;;;5014937;28;19916;-57
2024/02/19 09:39:42;;;;;;;;;;;9.30;99.90;;;;;;5033592;28;20300;-59
2024/02/19 09:42:08;;;;;;;;;;;9.20;99.90;;;;;;5020451;28;19913;-56
2024/02/19 09:44:34;;;;;;;;;;;9.10;99.90;;;;;;5041288;28;19963;-55
2024/02/19 09:47:01;;;;;;;;;;;9.10;99.90;;;;;;5040222;28;19972;-56
2024/02/19 09:49:28;;;;;;;;;;;9.20;99.90;;;;;;5037515;28;19979;-56
2024/02/19 09:51:54;;;;;;;;;;;9.20;99.90;;;;;;5039209;28;19975;-59
2024/02/19 09:54:21;;;;;;;;;;;9.20;99.90;;;;;;5039972;28;19922;-54
2024/02/19 09:56:50;;;;;;;;;;;9.20;99.90;;;;;;5045479;28;19904;-56
2024/02/19 09:59:16;;;;;;;;;;;9.20;99.90;;;;;;5033228;28;19909;-58
2024/02/19 10:01:42;;;;;;;;;;;9.20;99.90;;;;;;5037921;28;19917;-54
2024/02/19 10:04:07;;;;;;;;;;;9.20;99.90;;;;;;5036595;28;19956;-59
2024/02/19 10:06:36;;;;;;;;;;;9.20;99.90;;;;;;5048738;28;19908;-57
2024/02/19 10:09:06;;;;;;;;;;;9.20;99.90;;;;;;5032502;28;19916;-55
2024/02/19 10:11:38;;;;;;;;;;;9.20;99.90;;;;;;5018878;28;19912;-57
2024/02/19 10:14:04;;;;;;;;;;;9.20;99.90;;;;;;5023881;28;19913;-56
2024/02/19 10:16:30;;;;;;;;;;;9.30;99.90;;;;;;5033087;28;19971;-57
2024/02/19 10:19:15;;;;;;;;;;;9.30;99.90;;;;;;5032995;28;19911;-57
2024/02/19 10:21:42;;;;;;;;;;;9.40;99.90;;;;;;5037061;28;20485;-57
2024/02/19 10:24:07;;;;;;;;;;;9.40;99.90;;;;;;5028072;28;19913;-59
2024/02/19 10:26:34;;;;;;;;;;;9.50;99.90;;;;;;5040313;28;20293;-58
2024/02/19 10:28:59;;;;;;;;;;;9.60;99.90;;;;;;5024556;28;19921;-56
2024/02/19 10:31:25;;;;;;;;;;;9.60;99.90;;;;;;5033966;28;19905;-57
2024/02/19 10:33:51;;;;;;;;;;;9.70;99.90;;;;;;5023331;28;19912;-59
2024/02/19 10:36:19;;;;;;;;;;;9.80;99.90;;;;;;5040471;28;20326;-53
2024/02/19 10:38:45;;;;;;;;;;;9.90;99.90;;;;;;5032336;28;19955;-57
2024/02/19 10:41:11;;;;;;;;;;;9.90;99.90;;;;;;5032588;28;19913;-58
2024/02/19 10:43:37;;;;;;;;;;;10.10;99.90;;;;;;5039060;28;19976;-53
2024/02/19 10:46:04;;;;;;;;;;;10.30;99.90;;;;;;5037652;28;19913;-55
2024/02/19 10:48:30;;;;;;;;;;;10.30;99.90;;;;;;5045208;28;19959;-58
2024/02/19 10:50:56;;;;;;;;;;;10.50;99.90;;;;;;5037852;28;19921;-57
2024/02/19 10:53:27;;;;;;;;;;;10.40;99.90;;;;;;5035144;28;20277;-58
2024/02/19 10:56:07;;;;;;;;;;;10.60;99.90;;;;;;5038811;28;19909;-58
2024/02/19 10:58:33;;;;;;;;;;;10.60;99.90;;;;;;5045761;28;19908;-56
2024/02/19 11:01:01;;;;;;;;;;;10.50;99.90;;;;;;5045242;28;19916;-54
2024/02/19 11:03:27;;;;;;;;;;;10.40;99.90;;;;;;5029134;28;19915;-56
2024/02/19 11:05:52;;;;;;;;;;;10.40;99.90;;;;;;5046233;28;20357;-58
2024/02/19 11:08:21;;;;;;;;;;;10.40;99.90;;;;;;5035184;28;19909;-59
2024/02/19 11:10:50;;;;;;;;;;;10.50;99.90;;;;;;5053257;28;20329;-57
2024/02/19 11:13:26;;;;;;;;;;;10.60;99.90;;;;;;5045343;28;19958;-58
2024/02/19 11:15:53;;;;;;;;;;;10.60;99.90;;;;;;5037003;28;20446;-57
2024/02/19 11:18:19;;;;;;;;;;;10.60;99.90;;;;;;5026413;28;19906;-58
2024/02/19 11:20:44;;;;;;;;;;;10.50;99.90;;;;;;5038067;28;19909;-58
2024/02/19 11:23:10;;;;;;;;;;;10.70;99.90;;;;;;5031846;28;20010;-57
2024/02/19 11:25:36;;;;;;;;;;;10.70;99.90;;;;;;5039022;28;19912;-58
2024/02/19 11:28:02;;;;;;;;;;;10.50;99.90;;;;;;5027908;28;20193;-58
2024/02/19 11:30:29;;;;;;;;;;;10.40;99.90;;;;;;5053115;28;19911;-56
2024/02/19 11:33:01;;;;;;;;;;;10.40;99.90;;;;;;5053340;28;19997;-59
2024/02/19 11:35:26;;;;;;;;;;;10.40;99.90;;;;;;5012812;28;19906;-60
2024/02/19 11:37:52;;;;;;;;;;;10.20;99.90;;;;;;5028954;28;19913;-57
2024/02/19 11:40:18;;;;;;;;;;;10.20;99.90;;;;;;5033903;28;19995;-56
2024/02/19 11:42:44;;;;;;;;;;;10.20;99.90;;;;;;5040576;28;19913;-54
2024/02/19 11:45:09;;;;;;;;;;;10.10;99.90;;;;;;5029439;28;19919;-56
2024/02/19 11:47:37;;;;;;;;;;;10.10;99.90;;;;;;5021549;28;19913;-56
2024/02/19 11:50:05;;;;;;;;;;;10.20;99.90;;;;;;5035642;28;19917;-56
2024/02/19 11:52:30;;;;;;;;;;;10.30;99.90;;;;;;5033471;28;19908;-54
2024/02/19 11:54:56;;;;;;;;;;;10.30;99.90;;;;;;5039405;28;20256;-58
2024/02/19 11:57:25;;;;;;;;;;;10.40;99.90;;;;;;5038036;28;20416;-54
2024/02/19 11:59:51;;;;;;;;;;;10.60;99.90;;;;;;5042592;28;19908;-60
2024/02/19 12:02:18;;;;;;;;;;;10.60;99.90;;;;;;5023268;28;19959;-57
2024/02/19 12:04:50;;;;;;;;;;;10.70;99.90;;;;;;5040314;28;19934;-57
2024/02/19 12:07:16;;;;;;;;;;;10.90;99.90;;;;;;5014803;28;19963;-56
2024/02/19 12:09:41;;;;;;;;;;;11.10;99.90;;;;;;5030963;28;20249;-56
2024/02/19 12:12:08;;;;;;;;;;;11.10;99.90;;;;;;5035222;28;19941;-57
2024/02/19 12:14:35;;;;;;;;;;;11.10;99.90;;;;;;5034525;28;19944;-55
2024/02/19 12:17:03;;;;;;;;;;;11.00;99.90;;;;;;5035953;28;19913;-53
2024/02/19 12:19:29;;;;;;;;;;;10.90;99.90;;;;;;5036658;28;20600;-56
2024/02/19 12:21:54;;;;;;;;;;;10.90;99.90;;;;;;5026610;28;20376;-56
2024/02/19 12:24:20;;;;;;;;;;;11.10;99.90;;;;;;5018454;28;20007;-57
2024/02/19 12:26:45;;;;;;;;;;;11.40;99.90;;;;;;5037073;28;19905;-56
2024/02/19 12:29:11;;;;;;;;;;;11.70;99.90;;;;;;5015104;28;19928;-56
2024/02/19 12:31:37;;;;;;;;;;;11.80;99.90;;;;;;5026902;28;19914;-57
2024/02/19 12:34:02;;;;;;;;;;;11.90;99.90;;;;;;5019981;28;20015;-57
2024/02/19 12:36:28;;;;;;;;;;;12.00;99.90;;;;;;5027560;28;20385;-57
2024/02/19 12:38:55;;;;;;;;;;;12.10;99.90;;;;;;5028309;28;19910;-58
2024/02/19 12:41:20;;;;;;;;;;;12.20;99.90;;;;;;5031542;28;19913;-55
2024/02/19 12:43:46;;;;;;;;;;;11.90;99.90;;;;;;5028553;28;19927;-56
2024/02/19 12:46:12;;;;;;;;;;;11.60;99.90;;;;;;5048731;28;19924;-59
2024/02/19 12:48:39;;;;;;;;;;;11.60;99.90;;;;;;5029340;28;19955;-57
2024/02/19 12:51:06;;;;;;;;;;;11.50;99.90;;;;;;5039310;28;20399;-54
2024/02/19 12:53:31;;;;;;;;;;;11.40;99.90;;;;;;5026794;28;19996;-53
2024/02/19 12:55:57;;;;;;;;;;;11.40;99.90;;;;;;5026046;28;19919;-55
2024/02/19 12:58:23;;;;;;;;;;;11.30;99.90;;;;;;5028031;28;20238;-56
2024/02/19 13:00:48;;;;;;;;;;;11.20;99.90;;;;;;5031658;28;19913;-56
2024/02/19 13:03:15;;;;;;;;;;;11.20;99.90;;;;;;5032333;28;20284;-53
2024/02/19 13:05:40;;;;;;;;;;;11.10;99.90;;;;;;5030571;28;20328;-56
2024/02/19 13:08:10;;;;;;;;;;;11.10;99.90;;;;;;5029200;28;19921;-56
2024/02/19 13:10:36;;;;;;;;;;;11.20;99.90;;;;;;5017979;28;19913;-54
2024/02/19 13:13:01;;;;;;;;;;;11.20;99.90;;;;;;5043458;28;19952;-55
2024/02/19 13:15:27;;;;;;;;;;;11.20;99.90;;;;;;5027117;28;20436;-58
2024/02/19 13:17:52;;;;;;;;;;;11.20;99.90;;;;;;5026687;28;19913;-55
2024/02/19 13:20:18;;;;;;;;;;;11.10;99.90;;;;;;5020862;28;19917;-53
2024/02/19 13:22:44;;;;;;;;;;;11.10;99.90;;;;;;5036385;28;19916;-53
2024/02/19 13:25:09;;;;;;;;;;;10.90;99.90;;;;;;5024572;28;19909;-55
2024/02/19 13:27:35;;;;;;;;;;;11.00;99.90;;;;;;5042625;28;19912;-54
2024/02/19 13:30:00;;;;;;;;;;;11.10;99.90;;;;;;5034226;28;20405;-53
2024/02/19 13:32:26;;;;;;;;;;;11.00;99.90;;;;;;5043149;28;19920;-52
2024/02/19 13:34:52;;;;;;;;;;;11.00;99.90;;;;;;5023822;28;19917;-55
2024/02/19 13:37:18;;;;;;;;;;;11.00;99.90;;;;;;5049296;28;19913;-58
2024/02/19 13:39:44;;;;;;;;;;;11.00;99.90;;;;;;5022503;28;19956;-55
2024/02/19 13:42:10;;;;;;;;;;;10.90;99.90;;;;;;5034888;28;19912;-60
2024/02/19 13:44:35;;;;;;;;;;;10.80;99.90;;;;;;5022892;28;19920;-60
2024/02/19 13:47:00;;;;;;;;;;;10.80;99.90;;;;;;5037675;28;20356;-59
2024/02/19 13:49:26;;;;;;;;;;;10.80;99.90;;;;;;5016841;28;19917;-61
2024/02/19 13:51:51;;;;;;;;;;;10.80;99.90;;;;;;5034848;28;19963;-58
2024/02/19 13:54:17;;;;;;;;;;;10.80;99.90;;;;;;5015369;28;19917;-60
2024/02/19 13:56:42;;;;;;;;;;;11.00;99.90;;;;;;5027440;28;19935;-58
2024/02/19 13:59:10;;;;;;;;;;;11.00;99.90;;;;;;5021496;28;19905;-61
2024/02/19 14:01:36;;;;;;;;;;;11.10;99.90;;;;;;5042622;28;19948;-60
2024/02/19 14:04:03;;;;;;;;;;;11.00;99.90;;;;;;5049580;28;19955;-59
2024/02/19 14:06:29;;;;;;;;;;;10.90;99.90;;;;;;5029064;28;19908;-59
2024/02/19 14:08:55;;;;;;;;;;;10.90;99.90;;;;;;5037892;28;20258;-60
2024/02/19 14:11:21;;;;;;;;;;;10.90;99.90;;;;;;5023619;28;20015;-56
2024/02/19 14:13:46;;;;;;;;;;;10.90;99.90;;;;;;5021222;28;19909;-65
2024/02/19 14:16:12;;;;;;;;;;;11.00;99.90;;;;;;5027106;28;19982;-60
2024/02/19 14:18:37;;;;;;;;;;;11.00;99.90;;;;;;5025235;28;19908;-60